sensor_id;sensor_type;location;lat;lon;timestamp;temperature;humidity
68011;DHT22;54794;48.348;7.878;2022-11-09T00:01:02;15.10;66.00
68011;DHT22;54794;48.348;7.878;2022-11-09T00:03:30;15.10;66.20
68011;DHT22;54794;48.348;7.878;2022-11-09T00:05:58;15.10;66.00
68011;DHT22;54794;48.348;7.878;2022-11-09T00:08:26;15.10;66.10
68011;DHT22;54794;48.348;7.878;2022-11-09T00:10:53;15.10;66.10
68011;DHT22;54794;48.348;7.878;2022-11-09T00:13:20;15.10;66.10
68011;DHT22;54794;48.348;7.878;2022-11-09T00:15:48;15.10;66.00
68011;DHT22;54794;48.348;7.878;2022-11-09T00:18:15;15.10;66.10
68011;DHT22;54794;48.348;7.878;2022-11-09T00:20:42;15.10;65.90
68011;DHT22;54794;48.348;7.878;2022-11-09T00:23:16;15.10;65.90
68011;DHT22;54794;48.348;7.878;2022-11-09T00:25:44;15.10;66.00
68011;DHT22;54794;48.348;7.878;2022-11-09T00:28:11;15.10;66.10
68011;DHT22;54794;48.348;7.878;2022-11-09T00:30:38;15.10;66.10
68011;DHT22;54794;48.348;7.878;2022-11-09T00:33:06;15.10;66.20
68011;DHT22;54794;48.348;7.878;2022-11-09T00:35:37;15.10;66.20
68011;DHT22;54794;48.348;7.878;2022-11-09T00:38:04;15.10;66.30
68011;DHT22;54794;48.348;7.878;2022-11-09T00:40:31;15.10;66.30
68011;DHT22;54794;48.348;7.878;2022-11-09T00:42:58;15.10;66.30
68011;DHT22;54794;48.348;7.878;2022-11-09T00:45:24;15.10;66.40
68011;DHT22;54794;48.348;7.878;2022-11-09T00:47:51;15.10;66.40
68011;DHT22;54794;48.348;7.878;2022-11-09T00:50:18;15.20;66.40
68011;DHT22;54794;48.348;7.878;2022-11-09T00:52:45;15.20;66.40
68011;DHT22;54794;48.348;7.878;2022-11-09T00:55:13;15.20;66.40
68011;DHT22;54794;48.348;7.878;2022-11-09T00:57:41;15.20;66.40
68011;DHT22;54794;48.348;7.878;2022-11-09T01:00:08;15.20;66.40
68011;DHT22;54794;48.348;7.878;2022-11-09T01:02:35;15.20;66.40
68011;DHT22;54794;48.348;7.878;2022-11-09T01:05:02;15.20;66.40
68011;DHT22;54794;48.348;7.878;2022-11-09T01:07:29;15.20;66.40
68011;DHT22;54794;48.348;7.878;2022-11-09T01:09:56;15.20;66.40
68011;DHT22;54794;48.348;7.878;2022-11-09T01:12:23;15.30;66.50
68011;DHT22;54794;48.348;7.878;2022-11-09T01:14:49;15.30;67.00
68011;DHT22;54794;48.348;7.878;2022-11-09T01:17:16;15.30;66.40
68011;DHT22;54794;48.348;7.878;2022-11-09T01:19:43;15.30;66.50
68011;DHT22;54794;48.348;7.878;2022-11-09T01:22:10;15.30;66.40
68011;DHT22;54794;48.348;7.878;2022-11-09T01:24:37;15.30;66.40
68011;DHT22;54794;48.348;7.878;2022-11-09T01:27:04;15.30;66.30
68011;DHT22;54794;48.348;7.878;2022-11-09T01:29:30;15.30;66.40
68011;DHT22;54794;48.348;7.878;2022-11-09T01:31:57;15.30;66.40
68011;DHT22;54794;48.348;7.878;2022-11-09T01:34:26;15.30;66.40
68011;DHT22;54794;48.348;7.878;2022-11-09T01:36:54;15.40;66.50
68011;DHT22;54794;48.348;7.878;2022-11-09T01:39:21;15.40;66.60
68011;DHT22;54794;48.348;7.878;2022-11-09T01:41:47;15.40;66.40
68011;DHT22;54794;48.348;7.878;2022-11-09T01:44:17;15.40;66.70
68011;DHT22;54794;48.348;7.878;2022-11-09T01:46:49;15.40;66.50
68011;DHT22;54794;48.348;7.878;2022-11-09T01:51:55;15.40;66.60
68011;DHT22;54794;48.348;7.878;2022-11-09T01:54:30;15.40;66.70
68011;DHT22;54794;48.348;7.878;2022-11-09T01:57:09;15.40;66.80
68011;DHT22;54794;48.348;7.878;2022-11-09T01:59:47;15.40;66.90
68011;DHT22;54794;48.348;7.878;2022-11-09T02:02:20;15.40;67.00
68011;DHT22;54794;48.348;7.878;2022-11-09T02:04:49;15.40;66.90
68011;DHT22;54794;48.348;7.878;2022-11-09T02:07:21;15.40;67.00
68011;DHT22;54794;48.348;7.878;2022-11-09T02:10:12;15.40;66.60
68011;DHT22;54794;48.348;7.878;2022-11-09T02:12:59;15.40;67.50
68011;DHT22;54794;48.348;7.878;2022-11-09T02:15:27;15.40;67.00
68011;DHT22;54794;48.348;7.878;2022-11-09T02:17:56;15.40;67.20
68011;DHT22;54794;48.348;7.878;2022-11-09T02:20:24;15.40;67.30
68011;DHT22;54794;48.348;7.878;2022-11-09T02:22:52;15.40;67.30
68011;DHT22;54794;48.348;7.878;2022-11-09T02:25:20;15.30;67.40
68011;DHT22;54794;48.348;7.878;2022-11-09T02:27:48;15.30;67.40
68011;DHT22;54794;48.348;7.878;2022-11-09T02:30:18;15.30;67.50
68011;DHT22;54794;48.348;7.878;2022-11-09T02:32:46;15.30;67.60
68011;DHT22;54794;48.348;7.878;2022-11-09T02:35:13;15.30;67.40
68011;DHT22;54794;48.348;7.878;2022-11-09T02:37:46;15.30;67.50
68011;DHT22;54794;48.348;7.878;2022-11-09T02:40:21;15.30;67.90
68011;DHT22;54794;48.348;7.878;2022-11-09T02:42:51;15.30;67.90
68011;DHT22;54794;48.348;7.878;2022-11-09T02:45:18;15.30;67.60
68011;DHT22;54794;48.348;7.878;2022-11-09T02:47:45;15.30;67.70
68011;DHT22;54794;48.348;7.878;2022-11-09T02:50:12;15.30;67.80
68011;DHT22;54794;48.348;7.878;2022-11-09T02:52:39;15.30;67.80
68011;DHT22;54794;48.348;7.878;2022-11-09T02:55:06;15.30;67.80
68011;DHT22;54794;48.348;7.878;2022-11-09T02:57:33;15.30;67.80
68011;DHT22;54794;48.348;7.878;2022-11-09T03:00:00;15.30;67.70
68011;DHT22;54794;48.348;7.878;2022-11-09T03:02:27;15.30;67.80
68011;DHT22;54794;48.348;7.878;2022-11-09T03:04:54;15.30;68.00
68011;DHT22;54794;48.348;7.878;2022-11-09T03:07:20;15.30;68.00
68011;DHT22;54794;48.348;7.878;2022-11-09T03:09:47;15.30;68.00
68011;DHT22;54794;48.348;7.878;2022-11-09T03:12:14;15.30;68.00
68011;DHT22;54794;48.348;7.878;2022-11-09T03:15:10;15.30;67.90
68011;DHT22;54794;48.348;7.878;2022-11-09T03:17:37;15.30;67.90
68011;DHT22;54794;48.348;7.878;2022-11-09T03:20:05;15.30;68.00
68011;DHT22;54794;48.348;7.878;2022-11-09T03:22:32;15.30;68.10
68011;DHT22;54794;48.348;7.878;2022-11-09T03:24:59;15.30;68.20
68011;DHT22;54794;48.348;7.878;2022-11-09T03:27:26;15.30;68.10
68011;DHT22;54794;48.348;7.878;2022-11-09T03:29:53;15.30;68.20
68011;DHT22;54794;48.348;7.878;2022-11-09T03:32:19;15.30;68.40
68011;DHT22;54794;48.348;7.878;2022-11-09T03:34:46;15.30;68.40
68011;DHT22;54794;48.348;7.878;2022-11-09T03:37:14;15.30;68.30
68011;DHT22;54794;48.348;7.878;2022-11-09T03:39:41;15.30;68.50
68011;DHT22;54794;48.348;7.878;2022-11-09T03:42:08;15.30;68.50
68011;DHT22;54794;48.348;7.878;2022-11-09T03:44:35;15.30;68.60
68011;DHT22;54794;48.348;7.878;2022-11-09T03:47:02;15.30;68.70
68011;DHT22;54794;48.348;7.878;2022-11-09T03:49:28;15.40;68.70
68011;DHT22;54794;48.348;7.878;2022-11-09T03:51:55;15.40;68.80
68011;DHT22;54794;48.348;7.878;2022-11-09T03:54:22;15.40;68.80
68011;DHT22;54794;48.348;7.878;2022-11-09T03:56:49;15.40;68.80
68011;DHT22;54794;48.348;7.878;2022-11-09T03:59:16;15.40;68.90
68011;DHT22;54794;48.348;7.878;2022-11-09T04:01:42;15.40;68.90
68011;DHT22;54794;48.348;7.878;2022-11-09T04:04:09;15.40;68.90
68011;DHT22;54794;48.348;7.878;2022-11-09T04:06:36;15.40;68.90
68011;DHT22;54794;48.348;7.878;2022-11-09T04:09:03;15.40;69.10
68011;DHT22;54794;48.348;7.878;2022-11-09T04:11:30;15.40;69.10
68011;DHT22;54794;48.348;7.878;2022-11-09T04:13:57;15.50;69.20
68011;DHT22;54794;48.348;7.878;2022-11-09T04:16:24;15.50;69.20
68011;DHT22;54794;48.348;7.878;2022-11-09T04:18:50;15.50;69.30
68011;DHT22;54794;48.348;7.878;2022-11-09T04:21:17;15.50;69.50
68011;DHT22;54794;48.348;7.878;2022-11-09T04:23:49;15.50;69.40
68011;DHT22;54794;48.348;7.878;2022-11-09T04:26:16;15.50;69.40
68011;DHT22;54794;48.348;7.878;2022-11-09T04:28:43;15.50;69.50
68011;DHT22;54794;48.348;7.878;2022-11-09T04:31:10;15.60;69.60
68011;DHT22;54794;48.348;7.878;2022-11-09T04:33:37;15.60;69.60
68011;DHT22;54794;48.348;7.878;2022-11-09T04:36:04;15.60;69.50
68011;DHT22;54794;48.348;7.878;2022-11-09T04:38:31;15.60;70.20
68011;DHT22;54794;48.348;7.878;2022-11-09T04:40:59;15.60;69.70
68011;DHT22;54794;48.348;7.878;2022-11-09T04:43:28;15.60;69.80
68011;DHT22;54794;48.348;7.878;2022-11-09T04:46:01;15.70;69.80
68011;DHT22;54794;48.348;7.878;2022-11-09T04:48:30;15.70;69.90
68011;DHT22;54794;48.348;7.878;2022-11-09T04:50:59;15.70;69.80
68011;DHT22;54794;48.348;7.878;2022-11-09T04:53:30;15.70;70.00
68011;DHT22;54794;48.348;7.878;2022-11-09T04:55:58;15.80;70.00
68011;DHT22;54794;48.348;7.878;2022-11-09T04:58:25;15.80;69.90
68011;DHT22;54794;48.348;7.878;2022-11-09T05:00:53;15.80;69.90
68011;DHT22;54794;48.348;7.878;2022-11-09T05:03:20;15.80;70.00
68011;DHT22;54794;48.348;7.878;2022-11-09T05:05:47;15.80;70.10
68011;DHT22;54794;48.348;7.878;2022-11-09T05:08:14;15.90;69.80
68011;DHT22;54794;48.348;7.878;2022-11-09T05:10:41;15.90;70.00
68011;DHT22;54794;48.348;7.878;2022-11-09T05:13:10;15.90;70.10
68011;DHT22;54794;48.348;7.878;2022-11-09T05:15:38;15.90;70.20
68011;DHT22;54794;48.348;7.878;2022-11-09T05:18:06;15.90;70.10
68011;DHT22;54794;48.348;7.878;2022-11-09T05:20:35;16.00;70.30
68011;DHT22;54794;48.348;7.878;2022-11-09T05:23:02;16.00;70.30
68011;DHT22;54794;48.348;7.878;2022-11-09T05:25:48;16.00;70.30
68011;DHT22;54794;48.348;7.878;2022-11-09T05:28:15;16.00;70.30
68011;DHT22;54794;48.348;7.878;2022-11-09T05:30:42;16.00;70.30
68011;DHT22;54794;48.348;7.878;2022-11-09T05:33:09;16.10;70.30
68011;DHT22;54794;48.348;7.878;2022-11-09T05:35:36;16.10;70.30
68011;DHT22;54794;48.348;7.878;2022-11-09T05:38:03;16.10;70.30
68011;DHT22;54794;48.348;7.878;2022-11-09T05:40:30;16.10;70.30
68011;DHT22;54794;48.348;7.878;2022-11-09T05:42:58;16.10;70.30
68011;DHT22;54794;48.348;7.878;2022-11-09T05:45:25;16.10;70.50
68011;DHT22;54794;48.348;7.878;2022-11-09T05:48:11;16.20;70.40
68011;DHT22;54794;48.348;7.878;2022-11-09T05:50:39;16.20;70.40
68011;DHT22;54794;48.348;7.878;2022-11-09T05:53:11;16.20;70.40
68011;DHT22;54794;48.348;7.878;2022-11-09T05:55:38;16.30;70.60
68011;DHT22;54794;48.348;7.878;2022-11-09T05:58:05;16.30;70.70
68011;DHT22;54794;48.348;7.878;2022-11-09T06:00:33;16.30;70.70
68011;DHT22;54794;48.348;7.878;2022-11-09T06:03:05;16.30;70.40
68011;DHT22;54794;48.348;7.878;2022-11-09T06:05:34;16.30;70.50
68011;DHT22;54794;48.348;7.878;2022-11-09T06:08:07;16.30;70.20
68011;DHT22;54794;48.348;7.878;2022-11-09T06:10:36;16.20;70.40
68011;DHT22;54794;48.348;7.878;2022-11-09T06:13:03;16.30;70.10
68011;DHT22;54794;48.348;7.878;2022-11-09T06:15:30;16.30;70.10
68011;DHT22;54794;48.348;7.878;2022-11-09T06:17:58;16.20;70.10
68011;DHT22;54794;48.348;7.878;2022-11-09T06:20:26;16.20;70.00
68011;DHT22;54794;48.348;7.878;2022-11-09T06:23:00;16.20;70.00
68011;DHT22;54794;48.348;7.878;2022-11-09T06:25:31;16.20;70.30
68011;DHT22;54794;48.348;7.878;2022-11-09T06:27:59;16.10;70.60
68011;DHT22;54794;48.348;7.878;2022-11-09T06:30:26;16.10;69.90
68011;DHT22;54794;48.348;7.878;2022-11-09T06:33:02;16.10;70.10
68011;DHT22;54794;48.348;7.878;2022-11-09T06:35:29;16.10;70.20
68011;DHT22;54794;48.348;7.878;2022-11-09T06:37:57;16.10;70.00
68011;DHT22;54794;48.348;7.878;2022-11-09T06:40:26;16.10;70.20
68011;DHT22;54794;48.348;7.878;2022-11-09T06:42:57;16.10;70.20
68011;DHT22;54794;48.348;7.878;2022-11-09T06:45:26;16.10;70.40
68011;DHT22;54794;48.348;7.878;2022-11-09T06:47:55;16.00;70.80
68011;DHT22;54794;48.348;7.878;2022-11-09T06:50:28;16.00;70.40
68011;DHT22;54794;48.348;7.878;2022-11-09T06:53:02;16.00;70.40
68011;DHT22;54794;48.348;7.878;2022-11-09T06:55:34;16.00;70.60
68011;DHT22;54794;48.348;7.878;2022-11-09T06:58:14;16.00;70.40
68011;DHT22;54794;48.348;7.878;2022-11-09T07:00:42;16.00;70.80
68011;DHT22;54794;48.348;7.878;2022-11-09T07:03:19;16.00;70.50
68011;DHT22;54794;48.348;7.878;2022-11-09T07:05:49;16.00;70.70
68011;DHT22;54794;48.348;7.878;2022-11-09T07:08:18;16.00;70.40
68011;DHT22;54794;48.348;7.878;2022-11-09T07:10:45;16.00;70.40
68011;DHT22;54794;48.348;7.878;2022-11-09T07:13:12;16.00;70.60
68011;DHT22;54794;48.348;7.878;2022-11-09T07:15:39;16.00;70.20
68011;DHT22;54794;48.348;7.878;2022-11-09T07:18:09;16.00;70.30
68011;DHT22;54794;48.348;7.878;2022-11-09T07:20:38;16.00;70.50
68011;DHT22;54794;48.348;7.878;2022-11-09T07:23:05;16.00;70.50
68011;DHT22;54794;48.348;7.878;2022-11-09T07:25:32;16.00;70.60
68011;DHT22;54794;48.348;7.878;2022-11-09T07:28:06;16.00;70.60
68011;DHT22;54794;48.348;7.878;2022-11-09T07:30:35;16.00;70.90
68011;DHT22;54794;48.348;7.878;2022-11-09T07:33:09;16.00;70.70
68011;DHT22;54794;48.348;7.878;2022-11-09T07:35:56;16.00;70.80
68011;DHT22;54794;48.348;7.878;2022-11-09T07:38:23;16.00;70.70
68011;DHT22;54794;48.348;7.878;2022-11-09T07:40:50;16.00;70.80
68011;DHT22;54794;48.348;7.878;2022-11-09T07:43:17;16.00;70.80
68011;DHT22;54794;48.348;7.878;2022-11-09T07:45:45;16.00;70.80
68011;DHT22;54794;48.348;7.878;2022-11-09T07:48:12;16.10;71.10
68011;DHT22;54794;48.348;7.878;2022-11-09T07:50:39;16.10;70.70
68011;DHT22;54794;48.348;7.878;2022-11-09T07:53:09;16.10;71.30
68011;DHT22;54794;48.348;7.878;2022-11-09T07:55:38;16.10;70.80
68011;DHT22;54794;48.348;7.878;2022-11-09T08:03:45;16.00;71.50
68011;DHT22;54794;48.348;7.878;2022-11-09T08:06:12;16.10;70.90
68011;DHT22;54794;48.348;7.878;2022-11-09T08:08:44;16.10;71.00
68011;DHT22;54794;48.348;7.878;2022-11-09T08:11:11;16.10;71.10
68011;DHT22;54794;48.348;7.878;2022-11-09T08:13:38;16.10;71.60
68011;DHT22;54794;48.348;7.878;2022-11-09T08:16:05;16.10;71.10
68011;DHT22;54794;48.348;7.878;2022-11-09T08:18:32;16.10;71.20
68011;DHT22;54794;48.348;7.878;2022-11-09T08:21:02;16.10;71.10
68011;DHT22;54794;48.348;7.878;2022-11-09T08:23:30;16.10;71.40
68011;DHT22;54794;48.348;7.878;2022-11-09T08:26:01;16.10;71.30
68011;DHT22;54794;48.348;7.878;2022-11-09T08:28:30;16.10;71.60
68011;DHT22;54794;48.348;7.878;2022-11-09T08:31:00;16.20;71.40
68011;DHT22;54794;48.348;7.878;2022-11-09T08:33:31;16.20;71.50
68011;DHT22;54794;48.348;7.878;2022-11-09T08:36:14;16.20;71.70
68011;DHT22;54794;48.348;7.878;2022-11-09T08:38:43;16.20;72.30
68011;DHT22;54794;48.348;7.878;2022-11-09T08:41:11;16.30;71.80
68011;DHT22;54794;48.348;7.878;2022-11-09T08:43:39;16.30;72.00
68011;DHT22;54794;48.348;7.878;2022-11-09T08:46:06;16.40;71.50
68011;DHT22;54794;48.348;7.878;2022-11-09T08:48:33;16.40;71.70
68011;DHT22;54794;48.348;7.878;2022-11-09T08:51:00;16.40;71.70
68011;DHT22;54794;48.348;7.878;2022-11-09T08:53:28;16.40;71.80
68011;DHT22;54794;48.348;7.878;2022-11-09T08:55:55;16.50;71.90
68011;DHT22;54794;48.348;7.878;2022-11-09T08:58:23;16.50;71.80
68011;DHT22;54794;48.348;7.878;2022-11-09T09:00:50;16.50;71.90
68011;DHT22;54794;48.348;7.878;2022-11-09T09:03:17;16.50;71.90
68011;DHT22;54794;48.348;7.878;2022-11-09T09:05:44;16.60;71.90
68011;DHT22;54794;48.348;7.878;2022-11-09T09:08:11;16.60;71.80
68011;DHT22;54794;48.348;7.878;2022-11-09T09:10:41;16.60;71.90
68011;DHT22;54794;48.348;7.878;2022-11-09T09:13:08;16.70;72.00
68011;DHT22;54794;48.348;7.878;2022-11-09T09:15:35;16.70;72.10
68011;DHT22;54794;48.348;7.878;2022-11-09T09:18:03;16.70;72.00
68011;DHT22;54794;48.348;7.878;2022-11-09T09:20:31;16.70;72.00
68011;DHT22;54794;48.348;7.878;2022-11-09T09:22:58;16.80;72.10
68011;DHT22;54794;48.348;7.878;2022-11-09T09:25:26;16.80;72.10
68011;DHT22;54794;48.348;7.878;2022-11-09T09:27:54;16.80;72.10
68011;DHT22;54794;48.348;7.878;2022-11-09T09:30:21;16.90;72.10
68011;DHT22;54794;48.348;7.878;2022-11-09T09:32:48;16.90;72.10
68011;DHT22;54794;48.348;7.878;2022-11-09T09:35:15;16.90;72.10
68011;DHT22;54794;48.348;7.878;2022-11-09T09:37:42;16.90;72.10
68011;DHT22;54794;48.348;7.878;2022-11-09T09:40:24;16.90;72.00
68011;DHT22;54794;48.348;7.878;2022-11-09T09:42:56;16.90;72.50
68011;DHT22;54794;48.348;7.878;2022-11-09T09:45:27;16.90;72.00
68011;DHT22;54794;48.348;7.878;2022-11-09T09:51:36;17.00;72.80
68011;DHT22;54794;48.348;7.878;2022-11-09T09:54:16;17.00;72.70
68011;DHT22;54794;48.348;7.878;2022-11-09T09:56:48;17.10;72.70
68011;DHT22;54794;48.348;7.878;2022-11-09T09:59:42;17.00;72.20
68011;DHT22;54794;48.348;7.878;2022-11-09T10:02:20;17.10;72.90
68011;DHT22;54794;48.348;7.878;2022-11-09T10:04:54;17.10;72.50
68011;DHT22;54794;48.348;7.878;2022-11-09T10:17:04;17.20;72.70
68011;DHT22;54794;48.348;7.878;2022-11-09T10:25:26;17.20;72.30
68011;DHT22;54794;48.348;7.878;2022-11-09T10:28:16;17.30;72.10
68011;DHT22;54794;48.348;7.878;2022-11-09T10:30:44;17.30;72.60
68011;DHT22;54794;48.348;7.878;2022-11-09T10:33:15;17.30;72.10
68011;DHT22;54794;48.348;7.878;2022-11-09T10:38:51;17.30;72.20
68011;DHT22;54794;48.348;7.878;2022-11-09T10:41:31;17.30;72.00
68011;DHT22;54794;48.348;7.878;2022-11-09T10:44:03;17.40;72.20
68011;DHT22;54794;48.348;7.878;2022-11-09T10:47:00;17.40;72.10
68011;DHT22;54794;48.348;7.878;2022-11-09T10:49:38;17.40;72.30
68011;DHT22;54794;48.348;7.878;2022-11-09T10:52:30;17.40;72.00
68011;DHT22;54794;48.348;7.878;2022-11-09T10:55:34;17.40;72.50
68011;DHT22;54794;48.348;7.878;2022-11-09T10:58:31;17.40;72.30
68011;DHT22;54794;48.348;7.878;2022-11-09T11:01:20;17.40;72.50
68011;DHT22;54794;48.348;7.878;2022-11-09T11:03:50;17.40;72.50
68011;DHT22;54794;48.348;7.878;2022-11-09T11:11:30;17.50;72.40
68011;DHT22;54794;48.348;7.878;2022-11-09T11:14:31;17.50;72.30
68011;DHT22;54794;48.348;7.878;2022-11-09T11:16:59;17.50;72.40
68011;DHT22;54794;48.348;7.878;2022-11-09T11:19:38;17.50;72.00
68011;DHT22;54794;48.348;7.878;2022-11-09T11:22:17;17.50;72.10
68011;DHT22;54794;48.348;7.878;2022-11-09T11:25:19;17.60;72.80
68011;DHT22;54794;48.348;7.878;2022-11-09T11:28:00;17.60;72.40
68011;DHT22;54794;48.348;7.878;2022-11-09T11:30:34;17.60;72.20
68011;DHT22;54794;48.348;7.878;2022-11-09T11:33:14;17.60;72.10
68011;DHT22;54794;48.348;7.878;2022-11-09T11:35:46;17.60;72.30
68011;DHT22;54794;48.348;7.878;2022-11-09T11:38:41;17.60;72.10
68011;DHT22;54794;48.348;7.878;2022-11-09T11:52:25;17.70;72.40
68011;DHT22;54794;48.348;7.878;2022-11-09T12:01:06;17.70;72.00
68011;DHT22;54794;48.348;7.878;2022-11-09T12:06:53;17.70;72.10
68011;DHT22;54794;48.348;7.878;2022-11-09T12:09:52;17.70;72.30
68011;DHT22;54794;48.348;7.878;2022-11-09T12:13:18;17.70;72.30
68011;DHT22;54794;48.348;7.878;2022-11-09T12:15:51;17.70;72.50
68011;DHT22;54794;48.348;7.878;2022-11-09T12:18:38;17.70;72.00
68011;DHT22;54794;48.348;7.878;2022-11-09T12:24:55;17.70;72.40
68011;DHT22;54794;48.348;7.878;2022-11-09T12:28:13;17.70;72.30
68011;DHT22;54794;48.348;7.878;2022-11-09T12:36:39;17.80;72.50
68011;DHT22;54794;48.348;7.878;2022-11-09T12:42:12;17.80;72.60
68011;DHT22;54794;48.348;7.878;2022-11-09T12:45:11;17.80;72.50
68011;DHT22;54794;48.348;7.878;2022-11-09T12:47:47;17.80;72.70
68011;DHT22;54794;48.348;7.878;2022-11-09T12:50:18;17.80;72.30
68011;DHT22;54794;48.348;7.878;2022-11-09T12:52:48;17.80;72.70
68011;DHT22;54794;48.348;7.878;2022-11-09T12:55:21;17.80;72.30
68011;DHT22;54794;48.348;7.878;2022-11-09T12:58:31;17.80;72.40
68011;DHT22;54794;48.348;7.878;2022-11-09T13:01:05;17.80;72.70
68011;DHT22;54794;48.348;7.878;2022-11-09T13:03:38;17.80;72.50
68011;DHT22;54794;48.348;7.878;2022-11-09T13:06:24;17.80;72.50
68011;DHT22;54794;48.348;7.878;2022-11-09T13:11:43;17.80;72.50
68011;DHT22;54794;48.348;7.878;2022-11-09T13:16:56;17.80;72.70
68011;DHT22;54794;48.348;7.878;2022-11-09T13:24:51;17.80;72.90
68011;DHT22;54794;48.348;7.878;2022-11-09T13:29:59;17.80;72.60
68011;DHT22;54794;48.348;7.878;2022-11-09T13:32:29;17.80;72.30
68011;DHT22;54794;48.348;7.878;2022-11-09T13:35:03;17.80;72.30
68011;DHT22;54794;48.348;7.878;2022-11-09T13:43:00;17.70;72.50
68011;DHT22;54794;48.348;7.878;2022-11-09T13:47:54;17.70;72.30
68011;DHT22;54794;48.348;7.878;2022-11-09T13:50:23;17.70;72.30
68011;DHT22;54794;48.348;7.878;2022-11-09T13:52:54;17.70;72.40
68011;DHT22;54794;48.348;7.878;2022-11-09T13:55:38;17.60;72.30
68011;DHT22;54794;48.348;7.878;2022-11-09T13:58:22;17.60;72.50
68011;DHT22;54794;48.348;7.878;2022-11-09T14:00:55;17.60;72.40
68011;DHT22;54794;48.348;7.878;2022-11-09T14:03:24;17.60;72.30
68011;DHT22;54794;48.348;7.878;2022-11-09T14:05:56;17.60;72.30
68011;DHT22;54794;48.348;7.878;2022-11-09T14:08:33;17.60;72.30
68011;DHT22;54794;48.348;7.878;2022-11-09T14:14:51;17.50;72.60
68011;DHT22;54794;48.348;7.878;2022-11-09T14:23:16;17.50;72.50
68011;DHT22;54794;48.348;7.878;2022-11-09T14:25:45;17.50;72.80
68011;DHT22;54794;48.348;7.878;2022-11-09T14:28:30;17.50;72.60
68011;DHT22;54794;48.348;7.878;2022-11-09T14:30:59;17.50;73.00
68011;DHT22;54794;48.348;7.878;2022-11-09T14:33:29;17.50;72.60
68011;DHT22;54794;48.348;7.878;2022-11-09T14:36:01;17.50;72.70
68011;DHT22;54794;48.348;7.878;2022-11-09T14:38:35;17.50;72.80
68011;DHT22;54794;48.348;7.878;2022-11-09T14:41:22;17.40;72.60
68011;DHT22;54794;48.348;7.878;2022-11-09T14:43:53;17.40;72.80
68011;DHT22;54794;48.348;7.878;2022-11-09T14:46:25;17.40;73.10
68011;DHT22;54794;48.348;7.878;2022-11-09T14:48:56;17.40;72.70
68011;DHT22;54794;48.348;7.878;2022-11-09T14:51:38;17.40;72.70
68011;DHT22;54794;48.348;7.878;2022-11-09T14:54:11;17.40;73.00
68011;DHT22;54794;48.348;7.878;2022-11-09T14:56:40;17.40;72.60
68011;DHT22;54794;48.348;7.878;2022-11-09T14:59:16;17.40;72.60
68011;DHT22;54794;48.348;7.878;2022-11-09T15:02:05;17.40;72.70
68011;DHT22;54794;48.348;7.878;2022-11-09T15:05:03;17.40;72.90
68011;DHT22;54794;48.348;7.878;2022-11-09T15:07:33;17.40;72.80
68011;DHT22;54794;48.348;7.878;2022-11-09T15:10:04;17.40;72.60
68011;DHT22;54794;48.348;7.878;2022-11-09T15:12:50;17.40;72.70
68011;DHT22;54794;48.348;7.878;2022-11-09T15:15:24;17.40;72.70
68011;DHT22;54794;48.348;7.878;2022-11-09T15:17:53;17.40;72.70
68011;DHT22;54794;48.348;7.878;2022-11-09T15:28:25;17.30;72.70
68011;DHT22;54794;48.348;7.878;2022-11-09T15:33:26;17.30;72.60
68011;DHT22;54794;48.348;7.878;2022-11-09T15:36:05;17.30;72.70
68011;DHT22;54794;48.348;7.878;2022-11-09T15:39:03;17.30;72.90
68011;DHT22;54794;48.348;7.878;2022-11-09T15:41:43;17.30;72.90
68011;DHT22;54794;48.348;7.878;2022-11-09T15:44:12;17.30;72.60
68011;DHT22;54794;48.348;7.878;2022-11-09T15:46:49;17.20;72.70
68011;DHT22;54794;48.348;7.878;2022-11-09T15:49:19;17.20;73.00
68011;DHT22;54794;48.348;7.878;2022-11-09T15:51:48;17.20;72.70
68011;DHT22;54794;48.348;7.878;2022-11-09T15:54:16;17.20;72.80
68011;DHT22;54794;48.348;7.878;2022-11-09T15:56:44;17.10;72.70
68011;DHT22;54794;48.348;7.878;2022-11-09T15:59:21;17.20;72.80
68011;DHT22;54794;48.348;7.878;2022-11-09T16:01:50;17.10;73.00
68011;DHT22;54794;48.348;7.878;2022-11-09T16:04:17;17.10;72.60
68011;DHT22;54794;48.348;7.878;2022-11-09T16:06:44;17.10;72.70
68011;DHT22;54794;48.348;7.878;2022-11-09T16:09:13;17.10;72.80
68011;DHT22;54794;48.348;7.878;2022-11-09T16:11:40;17.10;72.90
68011;DHT22;54794;48.348;7.878;2022-11-09T16:14:07;17.10;73.00
68011;DHT22;54794;48.348;7.878;2022-11-09T16:16:34;17.00;72.90
68011;DHT22;54794;48.348;7.878;2022-11-09T16:19:01;17.00;72.90
68011;DHT22;54794;48.348;7.878;2022-11-09T16:21:27;17.00;72.90
68011;DHT22;54794;48.348;7.878;2022-11-09T16:23:54;17.00;73.00
68011;DHT22;54794;48.348;7.878;2022-11-09T16:26:24;17.00;72.90
68011;DHT22;54794;48.348;7.878;2022-11-09T16:28:53;17.00;73.50
68011;DHT22;54794;48.348;7.878;2022-11-09T16:31:20;17.00;73.00
68011;DHT22;54794;48.348;7.878;2022-11-09T16:34:07;17.00;72.90
68011;DHT22;54794;48.348;7.878;2022-11-09T16:36:34;17.00;72.90
68011;DHT22;54794;48.348;7.878;2022-11-09T16:39:05;16.90;72.90
68011;DHT22;54794;48.348;7.878;2022-11-09T16:41:38;16.90;72.90
68011;DHT22;54794;48.348;7.878;2022-11-09T16:44:06;17.00;73.00
68011;DHT22;54794;48.348;7.878;2022-11-09T16:46:33;16.90;72.90
68011;DHT22;54794;48.348;7.878;2022-11-09T16:49:01;16.90;72.90
68011;DHT22;54794;48.348;7.878;2022-11-09T16:51:29;16.90;72.80
68011;DHT22;54794;48.348;7.878;2022-11-09T16:53:56;16.90;72.90
68011;DHT22;54794;48.348;7.878;2022-11-09T16:56:23;16.90;73.00
68011;DHT22;54794;48.348;7.878;2022-11-09T16:58:50;16.90;72.70
68011;DHT22;54794;48.348;7.878;2022-11-09T17:01:17;16.80;73.20
68011;DHT22;54794;48.348;7.878;2022-11-09T17:03:49;16.80;72.70
68011;DHT22;54794;48.348;7.878;2022-11-09T17:06:16;16.80;72.80
68011;DHT22;54794;48.348;7.878;2022-11-09T17:08:43;16.80;73.20
68011;DHT22;54794;48.348;7.878;2022-11-09T17:11:11;16.80;72.80
68011;DHT22;54794;48.348;7.878;2022-11-09T17:13:40;16.80;72.90
68011;DHT22;54794;48.348;7.878;2022-11-09T17:16:10;16.80;72.90
68011;DHT22;54794;48.348;7.878;2022-11-09T17:18:39;16.80;73.00
68011;DHT22;54794;48.348;7.878;2022-11-09T17:21:09;16.70;72.80
68011;DHT22;54794;48.348;7.878;2022-11-09T17:23:37;16.70;72.90
68011;DHT22;54794;48.348;7.878;2022-11-09T17:26:05;16.70;72.90
68011;DHT22;54794;48.348;7.878;2022-11-09T17:28:34;16.70;72.90
68011;DHT22;54794;48.348;7.878;2022-11-09T17:31:11;16.60;72.80
68011;DHT22;54794;48.348;7.878;2022-11-09T17:33:40;16.60;72.80
68011;DHT22;54794;48.348;7.878;2022-11-09T17:36:08;16.60;72.80
68011;DHT22;54794;48.348;7.878;2022-11-09T17:38:39;16.60;72.80
68011;DHT22;54794;48.348;7.878;2022-11-09T17:41:09;16.60;72.80
68011;DHT22;54794;48.348;7.878;2022-11-09T17:43:38;16.60;72.90
68011;DHT22;54794;48.348;7.878;2022-11-09T17:46:15;16.60;72.90